ホノルル の空港の天気 - METARとTAF

ホノルル国際空港 ( PHNL / HNL ) - アメリカ ハワイ州ホノルル
飛行場実況気象(Metar)
観測時間01/21 07:53 HST (01/21 17:53 UTC)
風向・風速北 3m/s
視程10km以上
天気現象
少しの雲 雲底高度 1520m
気温21.1℃
湿度81%
気圧1017.3hPa
METARPHNL 211753Z VRB05KT 10SM FEW050 21/18 A3004 RMK AO2 SLP173 T02110178 10217 20200 53010 $
過去の天気等 Google飛行場航空写真 Wunderground天気予報

過去48時間のMETAR

飛行場予報(TAF)
発表時間: 1/21 07:33 HST (1/21 17:33 UTC)
予報対象時間: 21日8時 HST ~ 22日14時 HST
風向・風速北北西 2m/s
視程10km以上
少しの雲 雲底高度 760m
全天の4割程度の雲 雲底高度 1520m
21日10時 HST から
風向・風速南 5m/s
視程10km以上
少しの雲 雲底高度 910m
全天の4割程度の雲 雲底高度 1520m
21日19時 HST から
風向・風速不定 2m/s
視程10km以上
少しの雲 雲底高度 760m
全天の4割程度の雲 雲底高度 1520m
PHNL 211733Z 2118/2224 34004KT P6SM FEW025 SCT050
FM212000 19009KT P6SM FEW030 SCT050
FM220500 VRB03KT P6SM FEW025 SCT050